Time;durP1;ratioP1;P1;durP2;ratioP2;P2;SDS_P1;SDS_P2;PMS_P1;PMS_P2;Temp;Humidity;BMP_temperature;BMP_pressure;BME280_temperature;BME280_humidity;BME280_pressure;Samples;Min_cycle;Max_cycle;Signal;HPM_P1;HPM_P2
2023/06/02 00:00:49;;;;;;;12.40;6.80;;;;;;;12.60;80.44;98672.78;274128;1266;22292;-83
2023/06/02 00:07:11;;;;;;;12.80;7.10;;;;;;;12.58;80.09;98666.76;274192;1256;22419;-83
2023/06/02 00:13:14;;;;;;;10.90;6.70;;;;;;;12.52;80.40;98664.10;274236;1266;22296;-82
2023/06/02 00:19:18;;;;;;;11.80;7.40;;;;;;;12.38;80.65;98678.31;274222;1256;22285;-82
2023/06/02 00:25:58;;;;;;;14.70;8.50;;;;;;;12.10;80.25;98680.38;273611;1269;22397;-83
2023/06/02 00:32:00;;;;;;;13.20;7.80;;;;;;;12.00;80.53;98669.23;272443;1269;22505;-83
2023/06/02 00:38:04;;;;;;;16.60;8.60;;;;;;;12.07;81.88;98668.39;271229;1269;22327;-83
2023/06/02 00:44:06;;;;;;;16.40;8.20;;;;;;;12.02;81.30;98671.35;270756;1269;22335;-84
2023/06/02 00:50:08;;;;;;;12.50;7.40;;;;;;;11.87;81.74;98672.13;271571;1269;22501;-84
2023/06/02 00:56:13;;;;;;;19.20;8.80;;;;;;;11.83;82.65;98670.48;270671;1267;22606;-84
2023/06/02 01:02:16;;;;;;;13.40;8.20;;;;;;;11.75;83.11;98671.96;272132;1271;22603;-82
2023/06/02 01:08:39;;;;;;;16.20;8.50;;;;;;;11.71;83.72;98674.63;274037;1266;22209;-84
2023/06/02 01:14:43;;;;;;;13.40;7.30;;;;;;;11.64;83.59;98669.98;273499;1266;23389;-83
2023/06/02 01:20:57;;;;;;;13.00;7.50;;;;;;;11.54;83.70;98670.17;270197;1267;23801;-83
2023/06/02 01:27:16;;;;;;;16.90;9.60;;;;;;;11.40;83.89;98673.13;274115;1260;22342;-83
2023/06/02 01:33:36;;;;;;;19.90;8.40;;;;;;;11.34;84.29;98675.77;274028;1267;22438;-83
2023/06/02 01:39:39;;;;;;;15.00;8.80;;;;;;;11.23;84.64;98674.16;272648;1267;22540;-84
2023/06/02 01:45:42;;;;;;;13.00;8.00;;;;;;;11.21;85.05;98673.30;270965;1267;22521;-83
2023/06/02 01:52:04;;;;;;;14.10;8.90;;;;;;;11.01;84.33;98673.21;270777;1258;22520;-83
2023/06/02 01:58:26;;;;;;;15.50;8.40;;;;;;;10.85;84.45;98675.80;271272;1266;22663;-83
2023/06/02 02:04:29;;;;;;;14.40;7.60;;;;;;;10.78;85.47;98678.52;270994;1258;22676;-84
2023/06/02 02:10:37;;;;;;;11.80;6.70;;;;;;;10.89;87.11;98678.89;272648;1262;22385;-84
2023/06/02 02:16:44;;;;;;;15.70;7.50;;;;;;;10.97;87.61;98680.02;273916;1263;22392;-84
2023/06/02 02:22:46;;;;;;;11.50;6.60;;;;;;;10.98;87.97;98686.35;273907;1267;22267;-84
2023/06/02 02:28:48;;;;;;;10.50;7.10;;;;;;;10.99;88.01;98693.71;273462;1270;22530;-83
2023/06/02 02:34:58;;;;;;;11.20;7.40;;;;;;;10.97;87.97;98699.98;270689;1267;22637;-84
2023/06/02 02:41:00;;;;;;;11.40;7.50;;;;;;;10.75;87.00;98704.85;270062;1266;22616;-83
2023/06/02 02:47:03;;;;;;;11.60;7.60;;;;;;;10.54;87.57;98702.70;270202;1260;246443;-84
2023/06/02 02:53:04;;;;;;;13.50;8.30;;;;;;;10.49;88.35;98705.08;270001;1257;22560;-84
2023/06/02 02:59:13;;;;;;;17.00;8.30;;;;;;;10.46;88.90;98705.38;270388;1267;22517;-83
2023/06/02 03:05:18;;;;;;;15.20;8.20;;;;;;;10.50;89.34;98712.45;273809;1267;22712;-84
2023/06/02 03:11:22;;;;;;;14.10;8.20;;;;;;;10.55;89.79;98715.45;272025;1255;24214;-83
2023/06/02 03:17:29;;;;;;;18.70;8.60;;;;;;;10.48;89.45;98721.42;271464;1266;22276;-83
2023/06/02 03:23:31;;;;;;;12.20;6.90;;;;;;;10.56;90.64;98729.99;272192;1261;22566;-83
2023/06/02 03:29:34;;;;;;;11.90;8.10;;;;;;;10.67;90.61;98731.17;272285;1267;23491;-83
2023/06/02 03:35:38;;;;;;;13.00;7.70;;;;;;;10.71;90.82;98742.23;273787;1267;22756;-83
2023/06/02 03:41:40;;;;;;;11.00;7.10;;;;;;;10.77;91.43;98754.32;273364;1262;22637;-83
2023/06/02 03:47:42;;;;;;;14.20;7.80;;;;;;;10.93;91.70;98756.12;273223;1257;22388;-83
2023/06/02 03:53:59;;;;;;;10.80;6.80;;;;;;;11.07;92.10;98763.48;273806;1267;22546;-83
2023/06/02 04:00:06;;;;;;;11.80;7.60;;;;;;;11.22;92.15;98763.70;271445;1266;25507;-83
2023/06/02 04:06:44;;;;;;;13.30;7.00;;;;;;;11.38;91.96;98766.91;270567;1260;22432;-84
2023/06/02 04:12:46;;;;;;;11.60;7.10;;;;;;;11.53;92.21;98773.41;271034;1269;22536;-83
2023/06/02 04:18:52;;;;;;;14.10;7.70;;;;;;;11.67;92.02;98778.25;271493;1270;22285;-83
2023/06/02 04:24:55;;;;;;;13.90;8.20;;;;;;;11.81;91.91;98789.04;271778;1264;22326;-84
2023/06/02 04:31:26;;;;;;;13.20;8.70;;;;;;;11.97;91.54;98792.05;273294;1269;22421;-84
2023/06/02 04:37:39;;;;;;;17.40;8.50;;;;;;;12.16;91.25;98795.77;273872;1266;22330;-83
2023/06/02 04:43:42;;;;;;;13.00;8.10;;;;;;;12.36;91.07;98792.34;273942;1256;22427;-83
2023/06/02 04:49:45;;;;;;;18.50;9.20;;;;;;;12.58;91.08;98789.21;273985;1266;22371;-84
2023/06/02 04:55:47;;;;;;;14.50;9.40;;;;;;;12.82;91.01;98799.00;273810;1254;22359;-82
2023/06/02 05:02:05;;;;;;;18.70;10.40;;;;;;;13.04;90.73;98798.92;273973;1266;22780;-83
2023/06/02 05:08:07;;;;;;;22.50;9.60;;;;;;;13.27;90.62;98801.47;272678;1266;22510;-85
2023/06/02 05:14:24;;;;;;;22.40;10.90;;;;;;;13.50;90.61;98797.30;273237;1266;22224;-84
2023/06/02 05:20:27;;;;;;;25.00;12.10;;;;;;;13.77;90.79;98795.54;273090;1267;22567;-84
2023/06/02 05:26:29;;;;;;;22.20;12.30;;;;;;;14.12;90.85;98796.61;273839;1254;22278;-84
2023/06/02 05:32:35;;;;;;;27.20;12.60;;;;;;;14.47;90.29;98800.25;273692;1259;22306;-85
2023/06/02 05:38:44;;;;;;;20.40;12.00;;;;;;;14.76;89.89;98806.94;273863;1266;23916;-83
2023/06/02 05:44:46;;;;;;;18.30;10.30;;;;;;;14.98;89.43;98807.21;273904;1256;22258;-83
2023/06/02 05:50:48;;;;;;;20.20;10.10;;;;;;;15.15;88.70;98810.11;271874;1266;22531;-84
2023/06/02 05:56:50;;;;;;;22.10;10.80;;;;;;;15.33;88.23;98813.00;273389;1260;22299;-83
2023/06/02 06:02:53;;;;;;;16.90;9.90;;;;;;;15.51;87.70;98812.43;271001;1266;22522;-82
2023/06/02 06:09:00;;;;;;;13.90;8.90;;;;;;;15.69;87.32;98815.77;271257;1265;22205;-84
2023/06/02 06:15:22;;;;;;;23.80;10.80;;;;;;;15.91;86.75;98814.86;271246;1257;23670;-86
2023/06/02 06:21:24;;;;;;;19.00;9.90;;;;;;;16.11;86.20;98817.73;273434;1266;22219;-85
2023/06/02 06:27:26;;;;;;;18.00;9.20;;;;;;;16.32;85.71;98816.89;274065;1258;22468;-85
2023/06/02 06:33:48;;;;;;;21.30;8.60;;;;;;;16.52;85.58;98822.59;274038;1266;23031;-84
2023/06/02 06:40:17;;;;;;;20.30;8.70;;;;;;;16.78;85.34;98825.90;271662;1260;22492;-84
2023/06/02 06:46:19;;;;;;;18.10;10.20;;;;;;;17.15;85.46;98831.98;273145;1257;23151;-84
2023/06/02 06:52:52;;;;;;;15.90;6.50;;;;;;;17.71;85.01;98832.99;273271;1266;22605;-84
2023/06/02 06:58:54;;;;;;;12.60;6.30;;;;;;;18.42;81.50;98839.39;272424;1251;22492;-83
2023/06/02 07:04:56;;;;;;;16.60;6.40;;;;;;;19.13;79.00;98844.73;271422;1266;25351;-84
2023/06/02 07:11:00;;;;;;;11.50;6.20;;;;;;;19.76;77.72;98845.98;272033;1266;22585;-83
2023/06/02 07:17:02;;;;;;;15.40;6.50;;;;;;;20.30;75.75;98850.64;271584;1266;22523;-84
2023/06/02 07:23:04;;;;;;;12.70;5.50;;;;;;;20.70;73.71;98851.13;273470;1264;22309;-85
2023/06/02 07:29:06;;;;;;;15.70;6.30;;;;;;;21.01;72.61;98850.61;271733;1253;25330;-84
2023/06/02 07:35:08;;;;;;;11.50;4.80;;;;;;;21.19;71.07;98845.65;271574;1263;23427;-84
2023/06/02 07:41:13;;;;;;;10.40;5.10;;;;;;;21.23;68.59;98846.61;271238;1266;22636;-85
2023/06/02 07:47:34;;;;;;;10.50;5.40;;;;;;;21.43;67.52;98847.98;273738;1266;22181;-85
2023/06/02 07:53:36;;;;;;;9.60;6.10;;;;;;;21.46;66.50;98852.17;272425;1266;22564;-85
2023/06/02 07:59:38;;;;;;;10.30;6.10;;;;;;;21.53;65.81;98852.89;270906;1266;22331;-85
2023/06/02 08:05:40;;;;;;;17.30;6.30;;;;;;;21.48;64.93;98855.63;273764;1266;22580;-85
2023/06/02 08:11:51;;;;;;;17.20;6.30;;;;;;;21.45;64.83;98856.19;272548;1263;22414;-86
2023/06/02 08:18:15;;;;;;;12.50;5.80;;;;;;;21.50;62.73;98855.69;273737;1266;23922;-86
2023/06/02 08:24:16;;;;;;;14.40;5.40;;;;;;;21.49;61.75;98855.41;273473;1266;22246;-84
2023/06/02 08:30:18;;;;;;;14.00;5.70;;;;;;;21.54;61.32;98852.45;273596;1266;22563;-84
2023/06/02 08:36:20;;;;;;;11.30;5.60;;;;;;;21.53;60.75;98849.08;272993;1259;22326;-86
2023/06/02 08:42:24;;;;;;;9.70;4.00;;;;;;;21.32;59.87;98855.52;273504;1260;22414;-85
2023/06/02 08:48:27;;;;;;;11.60;4.60;;;;;;;21.14;59.51;98855.58;273396;1260;22551;-84
2023/06/02 08:54:29;;;;;;;9.30;5.00;;;;;;;21.19;59.09;98851.77;273389;1259;22207;-86
2023/06/02 09:00:41;;;;;;;11.70;4.40;;;;;;;21.19;58.74;98851.83;273790;1257;22327;-84
2023/06/02 09:06:44;;;;;;;6.70;4.60;;;;;;;21.32;58.54;98852.16;272954;1269;22556;-85
2023/06/02 09:12:48;;;;;;;8.60;4.60;;;;;;;21.52;57.82;98853.41;273227;1269;22524;-86
2023/06/02 09:18:57;;;;;;;8.50;4.50;;;;;;;21.63;57.57;98847.34;273298;1269;22343;-85
2023/06/02 09:25:02;;;;;;;10.50;5.10;;;;;;;21.91;56.70;98845.58;273243;1253;22391;-86
2023/06/02 09:31:05;;;;;;;9.00;4.90;;;;;;;21.96;56.88;98841.98;273096;1266;23779;-86
2023/06/02 09:37:09;;;;;;;11.30;4.50;;;;;;;22.22;56.57;98845.41;273330;1266;22614;-87
2023/06/02 09:43:15;;;;;;;10.00;4.60;;;;;;;22.78;55.74;98840.53;273404;1266;22475;-86
2023/06/02 09:49:19;;;;;;;10.30;4.70;;;;;;;22.95;54.68;98835.92;273240;1266;23402;-85
2023/06/02 09:55:21;;;;;;;12.10;5.00;;;;;;;22.68;53.84;98839.83;273507;1257;22243;-85
2023/06/02 10:01:22;;;;;;;11.60;5.30;;;;;;;22.61;54.07;98838.69;273605;1256;22294;-86
2023/06/02 10:08:06;;;;;;;10.00;5.20;;;;;;;22.45;54.15;98842.95;273461;1266;23416;-84
2023/06/02 10:14:35;;;;;;;8.60;4.50;;;;;;;22.29;54.06;98847.07;273432;1266;22398;-84
2023/06/02 10:21:15;;;;;;;11.40;4.90;;;;;;;22.35;53.81;98846.55;273463;1256;23523;-86
2023/06/02 10:27:29;;;;;;;10.90;4.80;;;;;;;22.07;53.59;98849.84;273455;1266;23547;-86
2023/06/02 10:33:41;;;;;;;9.00;5.00;;;;;;;21.94;53.78;98854.44;273371;1256;23655;-85
2023/06/02 10:39:43;;;;;;;10.80;4.80;;;;;;;22.13;53.14;98858.84;273162;1266;23132;-85
2023/06/02 10:45:45;;;;;;;10.60;4.60;;;;;;;22.02;53.10;98859.96;273553;1266;23617;-86
2023/06/02 10:52:06;;;;;;;10.00;5.10;;;;;;;21.88;53.10;98865.14;273552;1257;22312;-85
2023/06/02 10:58:12;;;;;;;7.50;4.30;;;;;;;21.55;52.96;98869.77;273697;1266;22200;-85
2023/06/02 11:04:27;;;;;;;10.60;4.40;;;;;;;21.34;53.15;98872.95;273477;1266;23641;-85
2023/06/02 11:10:51;;;;;;;7.30;4.50;;;;;;;21.31;53.55;98874.64;273600;1266;22509;-86
2023/06/02 11:17:28;;;;;;;9.80;4.40;;;;;;;21.17;52.89;98877.66;273373;1266;22319;-85
2023/06/02 11:23:30;;;;;;;10.70;4.30;;;;;;;21.23;53.98;98873.95;273531;1266;23521;-87
2023/06/02 11:29:33;;;;;;;9.50;4.00;;;;;;;21.95;53.39;98872.22;273672;1266;22429;-85
2023/06/02 11:35:35;;;;;;;7.90;3.60;;;;;;;22.66;52.20;98869.80;273361;1253;22529;-88
2023/06/02 11:41:54;;;;;;;6.60;4.00;;;;;;;22.77;51.61;98867.98;273338;1263;23512;-86
2023/06/02 11:48:12;;;;;;;10.10;3.90;;;;;;;22.47;51.14;98869.79;273215;1266;22406;-85
2023/06/02 11:54:18;;;;;;;9.60;3.50;;;;;;;22.22;50.99;98867.41;273431;1266;23089;-86
2023/06/02 12:00:30;;;;;;;8.70;4.10;;;;;;;21.98;50.99;98872.05;273767;1266;23019;-86
2023/06/02 12:28:34;;;;;;;9.40;4.10;;;;;;;21.74;51.09;98870.84;264805;1298;546158;-86
2023/06/02 12:34:35;;;;;;;10.00;4.00;;;;;;;21.45;50.82;98876.14;270792;1279;22523;-83
2023/06/02 12:40:37;;;;;;;10.80;3.70;;;;;;;21.29;51.17;98876.45;271214;1278;243375;-83
2023/06/02 12:46:39;;;;;;;7.70;3.60;;;;;;;21.21;51.27;98880.71;271496;1278;22563;-84
2023/06/02 12:52:40;;;;;;;7.70;3.90;;;;;;;21.44;51.65;98879.05;272861;1266;22378;-84
2023/06/02 12:58:42;;;;;;;7.00;3.70;;;;;;;21.45;50.78;98877.84;272665;1260;22392;-83
2023/06/02 13:04:44;;;;;;;10.00;4.40;;;;;;;21.35;50.73;98874.99;272629;1261;22387;-84
2023/06/02 13:10:45;;;;;;;7.30;3.20;;;;;;;21.32;50.15;98876.86;272659;1264;22514;-84
2023/06/02 13:17:05;;;;;;;6.00;3.00;;;;;;;21.24;49.67;98877.84;272601;1260;22378;-84
2023/06/02 13:23:06;;;;;;;7.00;3.40;;;;;;;21.18;49.70;98882.02;272683;1270;22356;-84
2023/06/02 13:29:07;;;;;;;8.00;3.60;;;;;;;20.86;49.67;98884.02;272868;1265;23163;-84
2023/06/02 13:35:08;;;;;;;10.60;3.40;;;;;;;20.56;49.88;98890.60;272938;1270;23693;-83
2023/06/02 13:41:09;;;;;;;6.70;3.10;;;;;;;20.47;50.22;98897.54;272914;1271;22226;-84
2023/06/02 13:47:10;;;;;;;9.40;3.40;;;;;;;20.40;49.75;98904.02;272842;1270;23623;-84
2023/06/02 13:53:11;;;;;;;8.00;2.60;;;;;;;20.28;49.89;98912.79;271943;1270;22572;-83
2023/06/02 13:59:13;;;;;;;11.00;3.30;;;;;;;20.15;50.01;98915.23;271679;1269;22491;-86
2023/06/02 14:05:14;;;;;;;7.40;2.80;;;;;;;20.01;49.49;98914.16;271880;1261;22392;-85
2023/06/02 14:11:15;;;;;;;6.30;3.30;;;;;;;19.87;49.45;98919.98;272112;1270;22563;-85
2023/06/02 14:17:16;;;;;;;8.90;3.60;;;;;;;19.70;48.96;98929.48;272172;1271;24181;-86
2023/06/02 14:23:17;;;;;;;16.80;3.50;;;;;;;19.60;49.01;98933.63;272061;1271;22511;-85
2023/06/02 14:29:18;;;;;;;7.70;3.10;;;;;;;19.65;48.98;98942.94;271907;1259;22555;-85
2023/06/02 14:35:19;;;;;;;4.80;3.00;;;;;;;19.68;48.37;98949.77;272066;1260;22387;-85
2023/06/02 14:41:21;;;;;;;8.20;3.30;;;;;;;19.63;48.42;98950.70;272444;1268;22415;-85
2023/06/02 14:47:22;;;;;;;9.30;3.00;;;;;;;19.56;48.33;98952.00;272690;1261;22496;-84
2023/06/02 14:53:23;;;;;;;8.00;2.80;;;;;;;19.49;48.76;98960.64;272660;1259;22492;-85
2023/06/02 14:59:24;;;;;;;9.90;3.50;;;;;;;19.37;48.97;98969.90;272678;1261;22379;-85
2023/06/02 15:05:26;;;;;;;7.10;2.90;;;;;;;19.13;49.69;98977.83;272731;1271;22499;-84
2023/06/02 15:11:27;;;;;;;6.70;3.40;;;;;;;18.92;50.19;98983.65;272727;1271;22578;-85
2023/06/02 15:17:52;;;;;;;6.80;3.40;;;;;;;18.69;50.63;98993.01;272654;1271;22236;-84
2023/06/02 15:24:10;;;;;;;8.30;3.50;;;;;;;18.50;51.11;98996.66;272796;1271;22276;-84
2023/06/02 15:30:13;;;;;;;4.90;3.00;;;;;;;18.34;51.72;98996.80;271809;1270;22441;-84
2023/06/02 15:36:14;;;;;;;5.40;2.90;;;;;;;18.24;52.15;99003.65;272638;1271;22214;-85
2023/06/02 15:42:30;;;;;;;6.30;3.00;;;;;;;18.24;52.70;99009.19;272575;1271;23335;-85
2023/06/02 15:48:55;;;;;;;7.50;3.80;;;;;;;18.18;53.09;99019.44;272872;1269;23595;-84
2023/06/02 15:54:56;;;;;;;12.10;3.60;;;;;;;17.94;53.67;99027.25;272517;1258;22802;-84
2023/06/02 16:00:57;;;;;;;6.50;3.30;;;;;;;17.70;54.40;99030.98;272715;1271;22387;-85
2023/06/02 16:06:58;;;;;;;9.30;3.30;;;;;;;17.46;54.47;99037.55;272485;1270;22390;-85
2023/06/02 16:12:59;;;;;;;6.90;3.40;;;;;;;17.33;54.67;99042.88;272507;1270;22496;-84
2023/06/02 16:19:00;;;;;;;7.80;3.60;;;;;;;17.24;55.13;99046.42;271580;1270;22946;-83
2023/06/02 16:25:03;;;;;;;6.60;3.30;;;;;;;17.20;55.23;99051.35;272307;1271;22313;-83
2023/06/02 16:31:04;;;;;;;8.80;3.60;;;;;;;17.11;55.34;99061.75;271592;1267;22558;-83
2023/06/02 16:37:06;;;;;;;5.50;4.20;;;;;;;16.96;55.70;99066.40;271744;1270;22437;-85
2023/06/02 16:43:07;;;;;;;7.40;4.00;;;;;;;16.88;56.08;99072.67;272118;1271;22754;-85
2023/06/02 16:49:12;;;;;;;5.40;3.40;;;;;;;16.81;56.50;99078.05;272457;1271;22370;-85
2023/06/02 16:55:32;;;;;;;7.10;3.40;;;;;;;16.77;56.74;99078.02;264638;1271;10002442;-84
2023/06/02 17:01:33;;;;;;;5.60;2.80;;;;;;;16.75;56.91;99082.39;271840;1271;23723;-84
2023/06/02 17:07:41;;;;;;;5.60;2.80;;;;;;;16.76;57.08;99088.86;271943;1271;22392;-85
2023/06/02 17:13:42;;;;;;;5.00;3.50;;;;;;;16.69;57.03;99095.27;272239;1271;22249;-84
2023/06/02 17:19:43;;;;;;;6.30;3.30;;;;;;;16.56;57.10;99103.71;272253;1265;22368;-85
2023/06/02 17:25:44;;;;;;;7.90;4.20;;;;;;;16.42;57.47;99115.75;272316;1271;23519;-84
2023/06/02 17:31:46;;;;;;;4.50;3.30;;;;;;;16.27;57.90;99131.27;272382;1271;22371;-83
2023/06/02 17:37:47;;;;;;;7.30;3.40;;;;;;;16.07;58.10;99142.52;271819;1270;23418;-83
2023/06/02 17:43:51;;;;;;;6.80;3.50;;;;;;;15.93;58.61;99149.81;272146;1271;22221;-84
2023/06/02 17:49:52;;;;;;;6.90;4.20;;;;;;;15.78;59.17;99154.26;272447;1270;22475;-83
2023/06/02 17:55:57;;;;;;;10.20;4.00;;;;;;;15.62;59.77;99161.06;272312;1270;22438;-85
2023/06/02 18:02:00;;;;;;;8.10;3.50;;;;;;;15.48;60.34;99171.56;272218;1262;22372;-85
2023/06/02 18:08:02;;;;;;;8.90;3.60;;;;;;;15.34;61.29;99185.64;272259;1271;23308;-84
2023/06/02 18:14:03;;;;;;;10.60;4.00;;;;;;;15.17;61.89;99196.67;272324;1268;22395;-84
2023/06/02 18:20:17;;;;;;;11.10;4.20;;;;;;;14.97;62.75;99207.61;272416;1271;22396;-84
2023/06/02 18:26:24;;;;;;;10.10;4.70;;;;;;;14.79;63.39;99222.62;272278;1271;22168;-84
2023/06/02 18:32:27;;;;;;;8.30;3.70;;;;;;;14.55;64.33;99236.36;272496;1270;23059;-84
2023/06/02 18:38:28;;;;;;;7.70;3.00;;;;;;;14.29;65.37;99250.84;273271;1258;23618;-84
2023/06/02 18:44:31;;;;;;;5.90;2.90;;;;;;;14.06;66.04;99260.16;273323;1259;22288;-83
2023/06/02 18:50:32;;;;;;;5.20;2.70;;;;;;;13.88;66.44;99271.84;273211;1266;22486;-83
2023/06/02 18:56:35;;;;;;;5.50;2.30;;;;;;;13.74;66.89;99278.41;273093;1266;22389;-83
2023/06/02 19:02:37;;;;;;;4.60;1.90;;;;;;;13.68;67.43;99286.57;273130;1267;23844;-84
2023/06/02 19:08:38;;;;;;;5.90;2.00;;;;;;;13.59;67.70;99292.98;273133;1266;22439;-84
2023/06/02 19:14:40;;;;;;;5.60;1.90;;;;;;;13.54;67.95;99301.70;273176;1266;23989;-83
2023/06/02 19:20:41;;;;;;;8.20;2.30;;;;;;;13.43;68.01;99310.77;273119;1266;22429;-83
2023/06/02 19:26:44;;;;;;;4.70;2.10;;;;;;;13.35;68.42;99317.15;273329;1266;23527;-83
2023/06/02 19:32:59;;;;;;;4.40;2.20;;;;;;;13.30;68.52;99326.55;272992;1266;23085;-83
2023/06/02 19:39:00;;;;;;;7.10;2.20;;;;;;;13.26;68.53;99332.27;273391;1267;22988;-84
2023/06/02 19:45:04;;;;;;;4.60;2.00;;;;;;;13.23;68.68;99334.60;273149;1267;22222;-83
2023/06/02 19:51:06;;;;;;;3.70;2.00;;;;;;;13.14;68.88;99345.46;272786;1262;22509;-83
2023/06/02 19:57:10;;;;;;;5.00;2.10;;;;;;;13.08;69.17;99355.47;272281;1265;22530;-82
2023/06/02 20:03:11;;;;;;;3.80;1.70;;;;;;;13.01;69.46;99358.73;273336;1266;24039;-83
2023/06/02 20:09:13;;;;;;;5.30;2.20;;;;;;;12.96;69.64;99360.71;272840;1267;22333;-82
2023/06/02 20:15:56;;;;;;;5.10;2.00;;;;;;;12.87;69.81;99363.30;273234;1267;22529;-82
2023/06/02 20:22:34;;;;;;;3.80;1.60;;;;;;;12.77;70.01;99366.21;272134;1266;22382;-84
2023/06/02 20:28:35;;;;;;;4.10;1.60;;;;;;;12.73;70.30;99369.47;272574;1267;22368;-84
2023/06/02 20:34:36;;;;;;;3.80;1.40;;;;;;;12.68;70.26;99376.73;272511;1267;22409;-82
2023/06/02 20:40:38;;;;;;;3.10;1.60;;;;;;;12.63;70.38;99385.55;272943;1259;22490;-83
2023/06/02 20:46:40;;;;;;;5.00;1.90;;;;;;;12.61;70.97;99382.48;273429;1266;23477;-83
2023/06/02 20:52:41;;;;;;;3.20;1.80;;;;;;;12.59;71.50;99387.48;273453;1266;22557;-84
2023/06/02 20:58:42;;;;;;;4.20;1.70;;;;;;;12.52;71.10;99393.14;273134;1266;22222;-83
2023/06/02 21:04:44;;;;;;;4.90;2.00;;;;;;;12.45;71.04;99391.56;272982;1269;23470;-83
2023/06/02 21:10:45;;;;;;;7.50;2.00;;;;;;;12.38;71.07;99389.08;273681;1266;22469;-84
2023/06/02 21:16:46;;;;;;;4.60;2.40;;;;;;;12.32;71.27;99394.34;273398;1264;22366;-82
2023/06/02 21:22:47;;;;;;;3.90;2.30;;;;;;;12.28;71.56;99403.33;273422;1266;22403;-82
2023/06/02 21:28:48;;;;;;;4.30;2.60;;;;;;;12.21;71.72;99406.23;273463;1264;22360;-83
2023/06/02 21:34:49;;;;;;;7.90;2.50;;;;;;;12.14;72.08;99404.81;273440;1258;22398;-82
2023/06/02 21:40:50;;;;;;;7.30;2.50;;;;;;;12.06;72.38;99399.39;273421;1252;22167;-83
2023/06/02 21:46:51;;;;;;;4.60;2.00;;;;;;;11.96;72.83;99399.98;273585;1266;23526;-82
2023/06/02 21:52:52;;;;;;;5.40;2.20;;;;;;;11.86;72.82;99399.16;273617;1267;22637;-82
2023/06/02 21:58:53;;;;;;;4.60;2.50;;;;;;;11.77;73.11;99401.86;273340;1256;22283;-83
2023/06/02 22:04:54;;;;;;;3.20;2.00;;;;;;;11.66;73.35;99401.08;273563;1268;22314;-83
2023/06/02 22:10:57;;;;;;;4.30;2.10;;;;;;;11.54;73.61;99401.76;272941;1266;23662;-83
2023/06/02 22:16:58;;;;;;;5.70;2.30;;;;;;;11.40;74.63;99402.58;273604;1265;22402;-82
2023/06/02 22:22:59;;;;;;;2.80;1.70;;;;;;;11.23;76.07;99402.32;273468;1266;22523;-83
2023/06/02 22:29:00;;;;;;;3.90;2.20;;;;;;;11.12;76.41;99402.80;273530;1258;22375;-82
2023/06/02 22:35:01;;;;;;;3.70;2.30;;;;;;;10.98;76.29;99404.21;273493;1257;22248;-82
2023/06/02 22:41:02;;;;;;;4.90;2.90;;;;;;;10.80;76.89;99409.02;273496;1267;22386;-82
2023/06/02 22:47:03;;;;;;;2.90;2.20;;;;;;;10.60;77.19;99412.90;272459;1257;23353;-82
2023/06/02 22:53:04;;;;;;;6.00;3.00;;;;;;;10.42;77.52;99410.70;271858;1268;22564;-82
2023/06/02 22:59:06;;;;;;;4.80;2.70;;;;;;;10.21;78.03;99409.36;272073;1267;23050;-84
2023/06/02 23:05:08;;;;;;;6.90;2.80;;;;;;;10.00;78.23;99412.83;271678;1267;23323;-84
2023/06/02 23:11:08;;;;;;;6.10;2.80;;;;;;;9.79;78.37;99414.36;272378;1268;22839;-83
2023/06/02 23:17:09;;;;;;;4.40;2.60;;;;;;;9.56;78.91;99419.72;272449;1267;22429;-84
2023/06/02 23:23:10;;;;;;;5.20;2.60;;;;;;;9.41;79.22;99420.95;272896;1267;23239;-83
2023/06/02 23:29:11;;;;;;;7.00;3.00;;;;;;;9.29;79.97;99429.96;273503;1267;22299;-84
2023/06/02 23:35:12;;;;;;;5.80;2.90;;;;;;;9.13;80.42;99430.38;273497;1267;22341;-83
2023/06/02 23:41:13;;;;;;;5.70;3.20;;;;;;;8.99;80.82;99435.41;273076;1266;22567;-82
2023/06/02 23:47:16;;;;;;;7.20;3.70;;;;;;;8.91;81.27;99437.27;272496;1266;22212;-83
2023/06/02 23:53:18;;;;;;;4.30;2.90;;;;;;;8.78;81.64;99440.04;273614;1267;23629;-83
2023/06/02 23:59:19;;;;;;;9.40;3.80;;;;;;;8.68;82.03;99447.27;273326;1267;22245;-82
